sensor_id;sensor_type;location;lat;lon;timestamp;P1;durP1;ratioP1;P2;durP2;ratioP2
1479;SDS011;732;51.698;4.886;2023-03-04T00:02:02;14.87;;;6.10;;
1479;SDS011;732;51.698;4.886;2023-03-04T00:04:32;23.40;;;5.40;;
1479;SDS011;732;51.698;4.886;2023-03-04T00:07:00;33.57;;;5.90;;
1479;SDS011;732;51.698;4.886;2023-03-04T00:09:30;20.63;;;5.03;;
1479;SDS011;732;51.698;4.886;2023-03-04T00:11:59;23.93;;;5.37;;
1479;SDS011;732;51.698;4.886;2023-03-04T00:14:27;22.00;;;5.03;;
1479;SDS011;732;51.698;4.886;2023-03-04T00:16:56;16.37;;;4.70;;
1479;SDS011;732;51.698;4.886;2023-03-04T00:19:24;20.23;;;4.77;;
1479;SDS011;732;51.698;4.886;2023-03-04T00:21:53;17.93;;;4.90;;
1479;SDS011;732;51.698;4.886;2023-03-04T00:24:21;15.40;;;4.67;;
1479;SDS011;732;51.698;4.886;2023-03-04T00:26:51;22.77;;;5.63;;
1479;SDS011;732;51.698;4.886;2023-03-04T00:29:20;17.80;;;5.60;;
1479;SDS011;732;51.698;4.886;2023-03-04T00:31:48;19.67;;;4.73;;
1479;SDS011;732;51.698;4.886;2023-03-04T00:34:17;21.70;;;5.13;;
1479;SDS011;732;51.698;4.886;2023-03-04T00:36:45;21.07;;;5.67;;
1479;SDS011;732;51.698;4.886;2023-03-04T00:39:15;20.20;;;5.83;;
1479;SDS011;732;51.698;4.886;2023-03-04T00:41:44;15.80;;;5.27;;
1479;SDS011;732;51.698;4.886;2023-03-04T00:44:14;18.33;;;4.80;;
1479;SDS011;732;51.698;4.886;2023-03-04T00:46:42;17.93;;;3.90;;
1479;SDS011;732;51.698;4.886;2023-03-04T00:49:11;19.27;;;4.50;;
1479;SDS011;732;51.698;4.886;2023-03-04T00:51:39;17.70;;;4.40;;
1479;SDS011;732;51.698;4.886;2023-03-04T00:54:08;12.67;;;3.60;;
1479;SDS011;732;51.698;4.886;2023-03-04T00:56:37;17.33;;;4.20;;
1479;SDS011;732;51.698;4.886;2023-03-04T00:59:05;13.77;;;4.60;;
1479;SDS011;732;51.698;4.886;2023-03-04T01:01:35;13.47;;;4.13;;
1479;SDS011;732;51.698;4.886;2023-03-04T01:04:03;14.73;;;4.03;;
1479;SDS011;732;51.698;4.886;2023-03-04T01:06:32;17.67;;;5.07;;
1479;SDS011;732;51.698;4.886;2023-03-04T01:09:00;14.93;;;4.20;;
1479;SDS011;732;51.698;4.886;2023-03-04T01:11:29;9.23;;;4.20;;
1479;SDS011;732;51.698;4.886;2023-03-04T01:13:57;19.33;;;4.87;;
1479;SDS011;732;51.698;4.886;2023-03-04T01:16:26;15.07;;;5.00;;
1479;SDS011;732;51.698;4.886;2023-03-04T01:18:55;20.53;;;4.57;;
1479;SDS011;732;51.698;4.886;2023-03-04T01:21:24;19.43;;;4.57;;
1479;SDS011;732;51.698;4.886;2023-03-04T01:23:54;25.07;;;5.97;;
1479;SDS011;732;51.698;4.886;2023-03-04T01:26:22;18.30;;;5.07;;
1479;SDS011;732;51.698;4.886;2023-03-04T01:28:51;17.83;;;5.83;;
1479;SDS011;732;51.698;4.886;2023-03-04T01:31:20;21.43;;;4.90;;
1479;SDS011;732;51.698;4.886;2023-03-04T01:33:49;19.97;;;5.93;;
1479;SDS011;732;51.698;4.886;2023-03-04T01:36:19;15.90;;;4.40;;
1479;SDS011;732;51.698;4.886;2023-03-04T01:38:48;18.47;;;4.80;;
1479;SDS011;732;51.698;4.886;2023-03-04T01:41:18;25.13;;;5.70;;
1479;SDS011;732;51.698;4.886;2023-03-04T01:43:52;15.10;;;5.00;;
1479;SDS011;732;51.698;4.886;2023-03-04T01:46:22;13.70;;;4.60;;
1479;SDS011;732;51.698;4.886;2023-03-04T01:48:51;12.83;;;4.73;;
1479;SDS011;732;51.698;4.886;2023-03-04T01:51:21;17.80;;;5.00;;
1479;SDS011;732;51.698;4.886;2023-03-04T01:53:49;16.33;;;4.80;;
1479;SDS011;732;51.698;4.886;2023-03-04T01:56:21;8.83;;;4.10;;
1479;SDS011;732;51.698;4.886;2023-03-04T02:01:39;19.20;;;5.37;;
1479;SDS011;732;51.698;4.886;2023-03-04T02:04:11;18.40;;;4.17;;
1479;SDS011;732;51.698;4.886;2023-03-04T02:06:42;11.47;;;4.20;;
1479;SDS011;732;51.698;4.886;2023-03-04T02:09:11;17.17;;;4.40;;
1479;SDS011;732;51.698;4.886;2023-03-04T02:11:40;16.53;;;4.90;;
1479;SDS011;732;51.698;4.886;2023-03-04T02:14:11;17.00;;;4.17;;
1479;SDS011;732;51.698;4.886;2023-03-04T02:16:40;13.13;;;4.40;;
1479;SDS011;732;51.698;4.886;2023-03-04T02:19:10;12.30;;;3.80;;
1479;SDS011;732;51.698;4.886;2023-03-04T02:21:47;12.97;;;4.40;;
1479;SDS011;732;51.698;4.886;2023-03-04T02:24:16;18.60;;;4.90;;
1479;SDS011;732;51.698;4.886;2023-03-04T02:26:53;17.03;;;5.03;;
1479;SDS011;732;51.698;4.886;2023-03-04T02:29:22;11.17;;;4.57;;
1479;SDS011;732;51.698;4.886;2023-03-04T02:31:51;15.27;;;4.77;;
1479;SDS011;732;51.698;4.886;2023-03-04T02:34:21;12.90;;;5.00;;
1479;SDS011;732;51.698;4.886;2023-03-04T02:36:54;18.03;;;4.27;;
1479;SDS011;732;51.698;4.886;2023-03-04T02:39:27;11.03;;;3.53;;
1479;SDS011;732;51.698;4.886;2023-03-04T02:42:00;18.33;;;4.30;;
1479;SDS011;732;51.698;4.886;2023-03-04T02:44:32;16.03;;;4.40;;
1479;SDS011;732;51.698;4.886;2023-03-04T02:47:04;11.00;;;4.37;;
1479;SDS011;732;51.698;4.886;2023-03-04T02:49:36;17.67;;;3.93;;
1479;SDS011;732;51.698;4.886;2023-03-04T02:52:07;19.13;;;5.70;;
1479;SDS011;732;51.698;4.886;2023-03-04T02:54:39;9.87;;;3.73;;
1479;SDS011;732;51.698;4.886;2023-03-04T02:57:11;19.60;;;4.20;;
1479;SDS011;732;51.698;4.886;2023-03-04T02:59:44;21.57;;;4.20;;
1479;SDS011;732;51.698;4.886;2023-03-04T03:02:17;26.03;;;6.00;;
1479;SDS011;732;51.698;4.886;2023-03-04T03:04:45;15.40;;;4.30;;
1479;SDS011;732;51.698;4.886;2023-03-04T03:07:16;11.53;;;4.40;;
1479;SDS011;732;51.698;4.886;2023-03-04T03:09:45;13.17;;;4.20;;
1479;SDS011;732;51.698;4.886;2023-03-04T03:12:15;13.97;;;4.13;;
1479;SDS011;732;51.698;4.886;2023-03-04T03:14:43;14.60;;;3.30;;
1479;SDS011;732;51.698;4.886;2023-03-04T03:17:15;15.63;;;3.60;;
1479;SDS011;732;51.698;4.886;2023-03-04T03:19:45;17.87;;;3.10;;
1479;SDS011;732;51.698;4.886;2023-03-04T03:22:14;15.57;;;3.23;;
1479;SDS011;732;51.698;4.886;2023-03-04T03:24:42;11.70;;;3.50;;
1479;SDS011;732;51.698;4.886;2023-03-04T03:27:11;11.97;;;3.30;;
1479;SDS011;732;51.698;4.886;2023-03-04T03:29:40;15.00;;;2.83;;
1479;SDS011;732;51.698;4.886;2023-03-04T03:32:09;14.00;;;3.60;;
1479;SDS011;732;51.698;4.886;2023-03-04T03:34:37;12.07;;;2.80;;
1479;SDS011;732;51.698;4.886;2023-03-04T03:37:07;12.97;;;2.70;;
1479;SDS011;732;51.698;4.886;2023-03-04T03:39:35;15.37;;;2.70;;
1479;SDS011;732;51.698;4.886;2023-03-04T03:42:04;13.20;;;3.00;;
1479;SDS011;732;51.698;4.886;2023-03-04T03:44:32;20.83;;;4.17;;
1479;SDS011;732;51.698;4.886;2023-03-04T03:47:02;11.33;;;3.47;;
1479;SDS011;732;51.698;4.886;2023-03-04T03:49:31;10.77;;;3.50;;
1479;SDS011;732;51.698;4.886;2023-03-04T03:51:59;19.17;;;5.50;;
1479;SDS011;732;51.698;4.886;2023-03-04T03:54:27;19.93;;;3.63;;
1479;SDS011;732;51.698;4.886;2023-03-04T03:56:56;18.60;;;4.20;;
1479;SDS011;732;51.698;4.886;2023-03-04T03:59:24;12.60;;;3.90;;
1479;SDS011;732;51.698;4.886;2023-03-04T04:01:52;10.90;;;3.67;;
1479;SDS011;732;51.698;4.886;2023-03-04T04:04:23;12.70;;;3.23;;
1479;SDS011;732;51.698;4.886;2023-03-04T04:06:51;15.67;;;3.17;;
1479;SDS011;732;51.698;4.886;2023-03-04T04:09:20;12.43;;;3.63;;
1479;SDS011;732;51.698;4.886;2023-03-04T04:11:48;11.80;;;3.53;;
1479;SDS011;732;51.698;4.886;2023-03-04T04:14:17;13.37;;;3.27;;
1479;SDS011;732;51.698;4.886;2023-03-04T04:16:45;18.67;;;3.17;;
1479;SDS011;732;51.698;4.886;2023-03-04T04:19:16;12.03;;;3.50;;
1479;SDS011;732;51.698;4.886;2023-03-04T04:21:47;13.47;;;3.60;;
1479;SDS011;732;51.698;4.886;2023-03-04T04:24:16;17.43;;;3.43;;
1479;SDS011;732;51.698;4.886;2023-03-04T04:26:44;17.13;;;3.90;;
1479;SDS011;732;51.698;4.886;2023-03-04T04:29:13;10.20;;;2.93;;
1479;SDS011;732;51.698;4.886;2023-03-04T04:31:43;9.07;;;4.03;;
1479;SDS011;732;51.698;4.886;2023-03-04T04:34:12;12.43;;;3.07;;
1479;SDS011;732;51.698;4.886;2023-03-04T04:36:40;13.90;;;4.10;;
1479;SDS011;732;51.698;4.886;2023-03-04T04:39:10;17.67;;;3.87;;
1479;SDS011;732;51.698;4.886;2023-03-04T04:41:39;14.07;;;3.30;;
1479;SDS011;732;51.698;4.886;2023-03-04T04:44:10;8.70;;;2.80;;
1479;SDS011;732;51.698;4.886;2023-03-04T04:46:40;20.43;;;3.50;;
1479;SDS011;732;51.698;4.886;2023-03-04T04:49:09;11.90;;;2.73;;
1479;SDS011;732;51.698;4.886;2023-03-04T04:51:38;17.20;;;3.70;;
1479;SDS011;732;51.698;4.886;2023-03-04T04:54:06;14.30;;;3.20;;
1479;SDS011;732;51.698;4.886;2023-03-04T04:56:36;14.73;;;3.27;;
1479;SDS011;732;51.698;4.886;2023-03-04T04:59:04;11.10;;;3.43;;
1479;SDS011;732;51.698;4.886;2023-03-04T05:01:34;9.27;;;2.93;;
1479;SDS011;732;51.698;4.886;2023-03-04T05:04:02;9.83;;;2.83;;
1479;SDS011;732;51.698;4.886;2023-03-04T05:06:31;14.73;;;3.67;;
1479;SDS011;732;51.698;4.886;2023-03-04T05:09:00;12.90;;;3.30;;
1479;SDS011;732;51.698;4.886;2023-03-04T05:11:28;12.37;;;2.70;;
1479;SDS011;732;51.698;4.886;2023-03-04T05:13:58;9.77;;;2.83;;
1479;SDS011;732;51.698;4.886;2023-03-04T05:16:26;12.37;;;3.30;;
1479;SDS011;732;51.698;4.886;2023-03-04T05:18:55;16.10;;;3.57;;
1479;SDS011;732;51.698;4.886;2023-03-04T05:21:23;12.93;;;3.87;;
1479;SDS011;732;51.698;4.886;2023-03-04T05:23:51;11.33;;;3.47;;
1479;SDS011;732;51.698;4.886;2023-03-04T05:26:20;9.30;;;3.03;;
1479;SDS011;732;51.698;4.886;2023-03-04T05:28:48;15.27;;;3.13;;
1479;SDS011;732;51.698;4.886;2023-03-04T05:31:18;9.83;;;2.93;;
1479;SDS011;732;51.698;4.886;2023-03-04T05:33:46;11.97;;;2.57;;
1479;SDS011;732;51.698;4.886;2023-03-04T05:36:15;12.53;;;3.17;;
1479;SDS011;732;51.698;4.886;2023-03-04T05:38:43;7.30;;;2.93;;
1479;SDS011;732;51.698;4.886;2023-03-04T05:41:11;11.43;;;2.90;;
1479;SDS011;732;51.698;4.886;2023-03-04T05:43:40;18.00;;;3.20;;
1479;SDS011;732;51.698;4.886;2023-03-04T05:46:10;9.40;;;4.03;;
1479;SDS011;732;51.698;4.886;2023-03-04T05:48:43;14.70;;;3.23;;
1479;SDS011;732;51.698;4.886;2023-03-04T05:51:11;24.30;;;4.43;;
1479;SDS011;732;51.698;4.886;2023-03-04T05:53:39;11.47;;;3.83;;
1479;SDS011;732;51.698;4.886;2023-03-04T05:56:08;11.70;;;3.97;;
1479;SDS011;732;51.698;4.886;2023-03-04T05:58:39;17.13;;;5.20;;
1479;SDS011;732;51.698;4.886;2023-03-04T06:01:07;11.70;;;4.10;;
1479;SDS011;732;51.698;4.886;2023-03-04T06:03:36;11.13;;;3.60;;
1479;SDS011;732;51.698;4.886;2023-03-04T06:06:06;12.27;;;3.50;;
1479;SDS011;732;51.698;4.886;2023-03-04T06:08:35;13.27;;;4.03;;
1479;SDS011;732;51.698;4.886;2023-03-04T06:11:04;8.90;;;3.20;;
1479;SDS011;732;51.698;4.886;2023-03-04T06:13:33;13.90;;;3.90;;
1479;SDS011;732;51.698;4.886;2023-03-04T06:16:04;8.20;;;3.83;;
1479;SDS011;732;51.698;4.886;2023-03-04T06:18:33;17.53;;;4.17;;
1479;SDS011;732;51.698;4.886;2023-03-04T06:21:01;15.00;;;4.27;;
1479;SDS011;732;51.698;4.886;2023-03-04T06:23:32;14.47;;;4.40;;
1479;SDS011;732;51.698;4.886;2023-03-04T06:26:00;11.80;;;4.73;;
1479;SDS011;732;51.698;4.886;2023-03-04T06:28:28;11.57;;;6.80;;
1479;SDS011;732;51.698;4.886;2023-03-04T06:30:57;18.40;;;5.60;;
1479;SDS011;732;51.698;4.886;2023-03-04T06:33:25;15.80;;;5.13;;
1479;SDS011;732;51.698;4.886;2023-03-04T06:35:54;17.20;;;5.70;;
1479;SDS011;732;51.698;4.886;2023-03-04T06:38:23;11.50;;;6.80;;
1479;SDS011;732;51.698;4.886;2023-03-04T06:40:54;14.93;;;7.17;;
1479;SDS011;732;51.698;4.886;2023-03-04T06:43:23;18.30;;;7.63;;
1479;SDS011;732;51.698;4.886;2023-03-04T06:45:51;18.70;;;7.00;;
1479;SDS011;732;51.698;4.886;2023-03-04T06:48:19;19.10;;;7.83;;
1479;SDS011;732;51.698;4.886;2023-03-04T06:50:48;15.00;;;7.03;;
1479;SDS011;732;51.698;4.886;2023-03-04T06:53:16;17.40;;;7.77;;
1479;SDS011;732;51.698;4.886;2023-03-04T06:55:45;15.33;;;7.33;;
1479;SDS011;732;51.698;4.886;2023-03-04T06:58:16;20.20;;;8.07;;
1479;SDS011;732;51.698;4.886;2023-03-04T07:00:44;18.90;;;7.63;;
1479;SDS011;732;51.698;4.886;2023-03-04T07:03:13;13.83;;;7.93;;
1479;SDS011;732;51.698;4.886;2023-03-04T07:05:41;13.07;;;7.47;;
1479;SDS011;732;51.698;4.886;2023-03-04T07:08:10;17.90;;;6.30;;
1479;SDS011;732;51.698;4.886;2023-03-04T07:10:38;12.30;;;5.83;;
1479;SDS011;732;51.698;4.886;2023-03-04T07:13:07;24.90;;;7.53;;
1479;SDS011;732;51.698;4.886;2023-03-04T07:15:37;12.10;;;5.10;;
1479;SDS011;732;51.698;4.886;2023-03-04T07:18:05;10.73;;;6.10;;
1479;SDS011;732;51.698;4.886;2023-03-04T07:20:34;10.83;;;4.47;;
1479;SDS011;732;51.698;4.886;2023-03-04T07:23:02;11.40;;;4.87;;
1479;SDS011;732;51.698;4.886;2023-03-04T07:25:31;13.97;;;3.50;;
1479;SDS011;732;51.698;4.886;2023-03-04T07:27:59;19.30;;;4.37;;
1479;SDS011;732;51.698;4.886;2023-03-04T07:30:28;16.93;;;3.63;;
1479;SDS011;732;51.698;4.886;2023-03-04T07:32:58;13.63;;;3.97;;
1479;SDS011;732;51.698;4.886;2023-03-04T07:35:26;11.63;;;3.90;;
1479;SDS011;732;51.698;4.886;2023-03-04T07:37:54;9.07;;;3.63;;
1479;SDS011;732;51.698;4.886;2023-03-04T07:40:23;20.70;;;3.50;;
1479;SDS011;732;51.698;4.886;2023-03-04T07:42:51;13.17;;;3.60;;
1479;SDS011;732;51.698;4.886;2023-03-04T07:45:24;15.73;;;3.30;;
1479;SDS011;732;51.698;4.886;2023-03-04T07:47:53;28.53;;;4.30;;
1479;SDS011;732;51.698;4.886;2023-03-04T07:50:23;14.93;;;3.83;;
1479;SDS011;732;51.698;4.886;2023-03-04T07:52:51;9.23;;;3.43;;
1479;SDS011;732;51.698;4.886;2023-03-04T07:55:19;19.03;;;3.90;;
1479;SDS011;732;51.698;4.886;2023-03-04T07:57:48;9.10;;;3.50;;
1479;SDS011;732;51.698;4.886;2023-03-04T08:00:17;13.63;;;3.53;;
1479;SDS011;732;51.698;4.886;2023-03-04T08:02:46;16.40;;;4.13;;
1479;SDS011;732;51.698;4.886;2023-03-04T08:05:15;10.17;;;3.20;;
1479;SDS011;732;51.698;4.886;2023-03-04T08:07:45;11.97;;;3.70;;
1479;SDS011;732;51.698;4.886;2023-03-04T08:10:13;14.10;;;3.90;;
1479;SDS011;732;51.698;4.886;2023-03-04T08:12:41;12.63;;;3.00;;
1479;SDS011;732;51.698;4.886;2023-03-04T08:15:10;21.77;;;4.27;;
1479;SDS011;732;51.698;4.886;2023-03-04T08:17:38;5.73;;;2.90;;
1479;SDS011;732;51.698;4.886;2023-03-04T08:20:08;18.10;;;3.80;;
1479;SDS011;732;51.698;4.886;2023-03-04T08:22:38;18.27;;;3.03;;
1479;SDS011;732;51.698;4.886;2023-03-04T08:25:08;10.50;;;2.67;;
1479;SDS011;732;51.698;4.886;2023-03-04T08:27:37;11.77;;;2.90;;
1479;SDS011;732;51.698;4.886;2023-03-04T08:30:06;15.53;;;3.30;;
1479;SDS011;732;51.698;4.886;2023-03-04T08:32:36;7.40;;;3.17;;
1479;SDS011;732;51.698;4.886;2023-03-04T08:35:05;15.00;;;3.00;;
1479;SDS011;732;51.698;4.886;2023-03-04T08:37:33;5.47;;;2.57;;
1479;SDS011;732;51.698;4.886;2023-03-04T08:40:02;7.37;;;2.73;;
1479;SDS011;732;51.698;4.886;2023-03-04T08:42:32;12.70;;;3.20;;
1479;SDS011;732;51.698;4.886;2023-03-04T08:45:00;8.23;;;2.63;;
1479;SDS011;732;51.698;4.886;2023-03-04T08:47:29;14.63;;;3.10;;
1479;SDS011;732;51.698;4.886;2023-03-04T08:49:58;9.73;;;2.50;;
1479;SDS011;732;51.698;4.886;2023-03-04T08:52:27;9.97;;;2.60;;
1479;SDS011;732;51.698;4.886;2023-03-04T08:54:56;23.30;;;3.40;;
1479;SDS011;732;51.698;4.886;2023-03-04T08:57:24;10.93;;;2.93;;
1479;SDS011;732;51.698;4.886;2023-03-04T08:59:54;12.43;;;3.97;;
1479;SDS011;732;51.698;4.886;2023-03-04T09:02:23;6.30;;;2.33;;
1479;SDS011;732;51.698;4.886;2023-03-04T09:04:51;10.20;;;3.00;;
1479;SDS011;732;51.698;4.886;2023-03-04T09:07:20;9.00;;;3.13;;
1479;SDS011;732;51.698;4.886;2023-03-04T09:09:48;11.90;;;2.73;;
1479;SDS011;732;51.698;4.886;2023-03-04T09:12:17;6.27;;;2.33;;
1479;SDS011;732;51.698;4.886;2023-03-04T09:14:45;10.27;;;2.20;;
1479;SDS011;732;51.698;4.886;2023-03-04T09:17:35;6.70;;;2.57;;
1479;SDS011;732;51.698;4.886;2023-03-04T09:20:04;7.53;;;2.40;;
1479;SDS011;732;51.698;4.886;2023-03-04T09:22:35;9.67;;;2.30;;
1479;SDS011;732;51.698;4.886;2023-03-04T09:25:04;4.30;;;2.33;;
1479;SDS011;732;51.698;4.886;2023-03-04T09:27:38;12.50;;;2.60;;
1479;SDS011;732;51.698;4.886;2023-03-04T09:30:07;5.70;;;2.23;;
1479;SDS011;732;51.698;4.886;2023-03-04T09:32:39;3.67;;;2.17;;
1479;SDS011;732;51.698;4.886;2023-03-04T09:35:07;4.80;;;2.03;;
1479;SDS011;732;51.698;4.886;2023-03-04T09:37:36;11.87;;;2.67;;
1479;SDS011;732;51.698;4.886;2023-03-04T09:40:07;8.57;;;2.17;;
1479;SDS011;732;51.698;4.886;2023-03-04T09:42:43;4.90;;;1.87;;
1479;SDS011;732;51.698;4.886;2023-03-04T09:45:15;6.03;;;1.73;;
1479;SDS011;732;51.698;4.886;2023-03-04T09:47:50;5.10;;;2.10;;
1479;SDS011;732;51.698;4.886;2023-03-04T09:50:21;5.63;;;2.00;;
1479;SDS011;732;51.698;4.886;2023-03-04T09:53:00;4.77;;;1.90;;
1479;SDS011;732;51.698;4.886;2023-03-04T09:55:41;6.03;;;1.70;;
1479;SDS011;732;51.698;4.886;2023-03-04T09:58:15;4.80;;;1.80;;
1479;SDS011;732;51.698;4.886;2023-03-04T10:01:02;2.53;;;1.40;;
1479;SDS011;732;51.698;4.886;2023-03-04T10:03:41;6.40;;;2.10;;
1479;SDS011;732;51.698;4.886;2023-03-04T10:06:15;3.63;;;1.50;;
1479;SDS011;732;51.698;4.886;2023-03-04T10:08:49;3.70;;;1.40;;
1479;SDS011;732;51.698;4.886;2023-03-04T10:11:24;7.67;;;1.40;;
1479;SDS011;732;51.698;4.886;2023-03-04T10:13:59;3.23;;;1.20;;
1479;SDS011;732;51.698;4.886;2023-03-04T10:16:43;2.53;;;1.20;;
1479;SDS011;732;51.698;4.886;2023-03-04T10:19:20;1.50;;;1.10;;
1479;SDS011;732;51.698;4.886;2023-03-04T10:21:58;4.87;;;1.57;;
1479;SDS011;732;51.698;4.886;2023-03-04T10:24:28;4.90;;;1.70;;
1479;SDS011;732;51.698;4.886;2023-03-04T10:26:59;4.57;;;1.50;;
1479;SDS011;732;51.698;4.886;2023-03-04T10:29:34;3.53;;;1.50;;
1479;SDS011;732;51.698;4.886;2023-03-04T10:32:03;6.83;;;1.50;;
1479;SDS011;732;51.698;4.886;2023-03-04T10:34:33;4.23;;;1.50;;
1479;SDS011;732;51.698;4.886;2023-03-04T10:37:02;4.40;;;1.63;;
1479;SDS011;732;51.698;4.886;2023-03-04T10:39:35;4.60;;;1.20;;
1479;SDS011;732;51.698;4.886;2023-03-04T10:42:21;3.77;;;1.30;;
1479;SDS011;732;51.698;4.886;2023-03-04T10:44:56;5.60;;;1.50;;
1479;SDS011;732;51.698;4.886;2023-03-04T10:47:27;6.07;;;2.07;;
1479;SDS011;732;51.698;4.886;2023-03-04T10:50:00;3.33;;;1.77;;
1479;SDS011;732;51.698;4.886;2023-03-04T10:52:33;4.80;;;1.53;;
1479;SDS011;732;51.698;4.886;2023-03-04T10:55:12;3.03;;;1.70;;
1479;SDS011;732;51.698;4.886;2023-03-04T10:57:43;4.30;;;2.27;;
1479;SDS011;732;51.698;4.886;2023-03-04T11:00:23;7.47;;;2.53;;
1479;SDS011;732;51.698;4.886;2023-03-04T11:06:08;4.23;;;2.57;;
1479;SDS011;732;51.698;4.886;2023-03-04T11:08:52;4.80;;;3.00;;
1479;SDS011;732;51.698;4.886;2023-03-04T11:11:23;6.90;;;3.23;;
1479;SDS011;732;51.698;4.886;2023-03-04T11:14:00;5.00;;;2.60;;
1479;SDS011;732;51.698;4.886;2023-03-04T11:16:37;3.43;;;2.30;;
1479;SDS011;732;51.698;4.886;2023-03-04T11:19:09;7.63;;;2.43;;
1479;SDS011;732;51.698;4.886;2023-03-04T11:21:44;5.47;;;2.57;;
1479;SDS011;732;51.698;4.886;2023-03-04T11:24:15;5.00;;;1.67;;
1479;SDS011;732;51.698;4.886;2023-03-04T11:26:55;2.67;;;1.30;;
1479;SDS011;732;51.698;4.886;2023-03-04T11:29:32;4.50;;;1.50;;
1479;SDS011;732;51.698;4.886;2023-03-04T11:32:09;11.77;;;2.90;;
1479;SDS011;732;51.698;4.886;2023-03-04T11:34:45;3.60;;;1.63;;
1479;SDS011;732;51.698;4.886;2023-03-04T11:37:23;2.70;;;1.87;;
1479;SDS011;732;51.698;4.886;2023-03-04T11:39:58;4.83;;;2.40;;
1479;SDS011;732;51.698;4.886;2023-03-04T11:42:34;4.30;;;2.37;;
1479;SDS011;732;51.698;4.886;2023-03-04T11:45:09;6.77;;;3.23;;
1479;SDS011;732;51.698;4.886;2023-03-04T11:47:56;4.33;;;3.10;;
1479;SDS011;732;51.698;4.886;2023-03-04T11:50:38;7.37;;;3.50;;
1479;SDS011;732;51.698;4.886;2023-03-04T11:56:21;3.47;;;3.13;;
1479;SDS011;732;51.698;4.886;2023-03-04T11:59:01;4.17;;;2.70;;
1479;SDS011;732;51.698;4.886;2023-03-04T12:05:03;4.53;;;3.00;;
1479;SDS011;732;51.698;4.886;2023-03-04T12:07:53;7.73;;;3.03;;
1479;SDS011;732;51.698;4.886;2023-03-04T12:11:01;5.60;;;3.43;;
1479;SDS011;732;51.698;4.886;2023-03-04T12:13:38;7.83;;;3.80;;
1479;SDS011;732;51.698;4.886;2023-03-04T12:19:42;6.53;;;2.60;;
1479;SDS011;732;51.698;4.886;2023-03-04T12:22:27;9.60;;;2.70;;
1479;SDS011;732;51.698;4.886;2023-03-04T12:25:14;4.23;;;2.10;;
1479;SDS011;732;51.698;4.886;2023-03-04T12:28:03;7.00;;;2.50;;
1479;SDS011;732;51.698;4.886;2023-03-04T12:30:57;7.50;;;2.67;;
1479;SDS011;732;51.698;4.886;2023-03-04T12:34:08;5.77;;;3.07;;
1479;SDS011;732;51.698;4.886;2023-03-04T12:37:15;5.57;;;2.80;;
1479;SDS011;732;51.698;4.886;2023-03-04T12:40:30;3.07;;;1.50;;
1479;SDS011;732;51.698;4.886;2023-03-04T12:46:22;5.80;;;1.70;;
1479;SDS011;732;51.698;4.886;2023-03-04T12:49:13;3.63;;;2.03;;
1479;SDS011;732;51.698;4.886;2023-03-04T12:52:09;5.53;;;1.93;;
1479;SDS011;732;51.698;4.886;2023-03-04T12:54:50;5.87;;;2.20;;
1479;SDS011;732;51.698;4.886;2023-03-04T12:57:23;6.20;;;2.70;;
1479;SDS011;732;51.698;4.886;2023-03-04T12:59:58;4.27;;;2.80;;
1479;SDS011;732;51.698;4.886;2023-03-04T13:02:46;5.53;;;3.40;;
1479;SDS011;732;51.698;4.886;2023-03-04T13:05:39;7.80;;;3.17;;
1479;SDS011;732;51.698;4.886;2023-03-04T13:08:28;3.33;;;2.40;;
1479;SDS011;732;51.698;4.886;2023-03-04T13:14:26;3.30;;;1.83;;
1479;SDS011;732;51.698;4.886;2023-03-04T13:17:33;2.73;;;1.60;;
1479;SDS011;732;51.698;4.886;2023-03-04T13:23:02;1.90;;;1.60;;
1479;SDS011;732;51.698;4.886;2023-03-04T13:25:48;3.37;;;2.37;;
1479;SDS011;732;51.698;4.886;2023-03-04T13:28:33;6.43;;;3.23;;
1479;SDS011;732;51.698;4.886;2023-03-04T13:31:05;3.50;;;3.00;;
1479;SDS011;732;51.698;4.886;2023-03-04T13:33:58;5.93;;;3.10;;
1479;SDS011;732;51.698;4.886;2023-03-04T13:39:31;4.53;;;3.03;;
1479;SDS011;732;51.698;4.886;2023-03-04T13:42:03;4.50;;;3.47;;
1479;SDS011;732;51.698;4.886;2023-03-04T13:45:28;5.17;;;4.30;;
1479;SDS011;732;51.698;4.886;2023-03-04T13:48:01;6.50;;;5.90;;
1479;SDS011;732;51.698;4.886;2023-03-04T13:50:40;8.20;;;6.20;;
1479;SDS011;732;51.698;4.886;2023-03-04T13:53:21;7.30;;;6.57;;
1479;SDS011;732;51.698;4.886;2023-03-04T13:56:08;9.00;;;6.23;;
1479;SDS011;732;51.698;4.886;2023-03-04T13:59:08;13.93;;;6.50;;
1479;SDS011;732;51.698;4.886;2023-03-04T14:01:56;6.70;;;5.20;;
1479;SDS011;732;51.698;4.886;2023-03-04T14:04:38;9.53;;;4.73;;
1479;SDS011;732;51.698;4.886;2023-03-04T14:07:22;5.80;;;3.03;;
1479;SDS011;732;51.698;4.886;2023-03-04T14:09:53;4.30;;;2.73;;
1479;SDS011;732;51.698;4.886;2023-03-04T14:12:25;5.67;;;2.67;;
1479;SDS011;732;51.698;4.886;2023-03-04T14:14:57;5.37;;;2.93;;
1479;SDS011;732;51.698;4.886;2023-03-04T14:17:28;5.33;;;2.80;;
1479;SDS011;732;51.698;4.886;2023-03-04T14:20:00;7.30;;;2.50;;
1479;SDS011;732;51.698;4.886;2023-03-04T14:22:37;6.50;;;2.60;;
1479;SDS011;732;51.698;4.886;2023-03-04T14:25:20;9.33;;;2.17;;
1479;SDS011;732;51.698;4.886;2023-03-04T14:28:01;4.27;;;2.33;;
1479;SDS011;732;51.698;4.886;2023-03-04T14:30:32;4.50;;;2.03;;
1479;SDS011;732;51.698;4.886;2023-03-04T14:33:13;7.53;;;2.20;;
1479;SDS011;732;51.698;4.886;2023-03-04T14:35:45;8.63;;;2.80;;
1479;SDS011;732;51.698;4.886;2023-03-04T14:38:20;4.97;;;2.10;;
1479;SDS011;732;51.698;4.886;2023-03-04T14:40:56;11.77;;;2.30;;
1479;SDS011;732;51.698;4.886;2023-03-04T14:43:29;5.20;;;2.73;;
1479;SDS011;732;51.698;4.886;2023-03-04T14:46:04;6.33;;;1.97;;
1479;SDS011;732;51.698;4.886;2023-03-04T14:48:39;7.37;;;1.70;;
1479;SDS011;732;51.698;4.886;2023-03-04T14:54:26;4.47;;;2.03;;
1479;SDS011;732;51.698;4.886;2023-03-04T14:57:00;5.63;;;1.90;;
1479;SDS011;732;51.698;4.886;2023-03-04T14:59:49;3.00;;;1.60;;
1479;SDS011;732;51.698;4.886;2023-03-04T15:02:20;7.60;;;1.90;;
1479;SDS011;732;51.698;4.886;2023-03-04T15:04:57;6.63;;;2.13;;
1479;SDS011;732;51.698;4.886;2023-03-04T15:07:42;4.93;;;2.20;;
1479;SDS011;732;51.698;4.886;2023-03-04T15:10:20;10.83;;;2.57;;
1479;SDS011;732;51.698;4.886;2023-03-04T15:12:53;6.50;;;1.90;;
1479;SDS011;732;51.698;4.886;2023-03-04T15:15:30;13.30;;;2.33;;
1479;SDS011;732;51.698;4.886;2023-03-04T15:18:19;8.00;;;2.40;;
1479;SDS011;732;51.698;4.886;2023-03-04T15:20:52;11.30;;;2.83;;
1479;SDS011;732;51.698;4.886;2023-03-04T15:23:23;8.17;;;2.20;;
1479;SDS011;732;51.698;4.886;2023-03-04T15:25:54;8.70;;;1.90;;
1479;SDS011;732;51.698;4.886;2023-03-04T15:28:26;10.93;;;3.10;;
1479;SDS011;732;51.698;4.886;2023-03-04T15:31:00;17.53;;;2.90;;
1479;SDS011;732;51.698;4.886;2023-03-04T15:33:29;7.17;;;3.13;;
1479;SDS011;732;51.698;4.886;2023-03-04T15:35:58;10.90;;;3.10;;
1479;SDS011;732;51.698;4.886;2023-03-04T15:38:29;17.43;;;3.07;;
1479;SDS011;732;51.698;4.886;2023-03-04T15:40:59;13.33;;;2.90;;
1479;SDS011;732;51.698;4.886;2023-03-04T15:43:28;7.70;;;3.03;;
1479;SDS011;732;51.698;4.886;2023-03-04T15:45:57;15.33;;;3.87;;
1479;SDS011;732;51.698;4.886;2023-03-04T15:48:26;9.93;;;3.07;;
1479;SDS011;732;51.698;4.886;2023-03-04T15:50:56;13.87;;;3.07;;
1479;SDS011;732;51.698;4.886;2023-03-04T15:53:28;11.03;;;3.03;;
1479;SDS011;732;51.698;4.886;2023-03-04T15:56:02;11.87;;;3.20;;
1479;SDS011;732;51.698;4.886;2023-03-04T15:58:34;10.80;;;2.50;;
1479;SDS011;732;51.698;4.886;2023-03-04T16:01:03;9.73;;;2.30;;
1479;SDS011;732;51.698;4.886;2023-03-04T16:03:32;16.37;;;2.80;;
1479;SDS011;732;51.698;4.886;2023-03-04T16:06:00;14.00;;;3.60;;
1479;SDS011;732;51.698;4.886;2023-03-04T16:08:29;6.33;;;2.40;;
1479;SDS011;732;51.698;4.886;2023-03-04T16:10:57;11.20;;;2.43;;
1479;SDS011;732;51.698;4.886;2023-03-04T16:13:27;8.40;;;2.17;;
1479;SDS011;732;51.698;4.886;2023-03-04T16:15:56;10.50;;;2.60;;
1479;SDS011;732;51.698;4.886;2023-03-04T16:18:24;7.87;;;2.20;;
1479;SDS011;732;51.698;4.886;2023-03-04T16:20:53;11.10;;;3.67;;
1479;SDS011;732;51.698;4.886;2023-03-04T16:23:22;12.20;;;4.10;;
1479;SDS011;732;51.698;4.886;2023-03-04T16:25:52;15.37;;;3.90;;
1479;SDS011;732;51.698;4.886;2023-03-04T16:28:22;10.10;;;4.00;;